createdAt,value
2023-05-31T00:01:45.430Z,50.00
2023-05-31T00:04:14.023Z,50.00
2023-05-31T00:06:42.705Z,50.00
2023-05-31T00:09:11.550Z,50.70
2023-05-31T00:11:41.952Z,50.10
2023-05-31T00:14:10.769Z,50.10
2023-05-31T00:19:11.153Z,50.10
2023-05-31T00:21:40.056Z,50.10
2023-05-31T00:24:09.446Z,50.20
2023-05-31T00:26:37.913Z,50.20
2023-05-31T00:29:07.980Z,50.40
2023-05-31T00:31:36.634Z,50.40
2023-05-31T00:34:06.038Z,50.20
2023-05-31T00:36:35.561Z,50.40
2023-05-31T00:39:04.490Z,50.50
2023-05-31T00:41:33.071Z,51.20
2023-05-31T00:44:01.545Z,50.60
2023-05-31T00:46:36.804Z,50.60
2023-05-31T00:49:06.532Z,50.80
2023-05-31T00:51:37.168Z,50.70
2023-05-31T00:54:06.230Z,50.70
2023-05-31T00:56:35.066Z,50.80
2023-05-31T00:59:04.156Z,50.80
2023-05-31T01:01:35.655Z,50.80
2023-05-31T01:04:04.921Z,51.50
2023-05-31T01:06:35.625Z,50.80
2023-05-31T01:09:09.516Z,50.80
2023-05-31T01:11:58.367Z,50.80
2023-05-31T01:14:40.913Z,51.20
2023-05-31T01:17:31.324Z,51.20
2023-05-31T01:20:04.406Z,51.20
2023-05-31T01:22:51.552Z,51.00
2023-05-31T01:25:37.954Z,51.20
2023-05-31T01:28:09.354Z,51.40
2023-05-31T01:30:39.564Z,51.20
2023-05-31T01:33:12.315Z,51.10
2023-05-31T01:35:40.985Z,51.20
2023-05-31T01:38:09.660Z,51.20
2023-05-31T01:40:39.162Z,51.20
2023-05-31T01:43:10.830Z,51.30
2023-05-31T01:45:41.259Z,51.30
2023-05-31T01:48:13.203Z,51.30
2023-05-31T01:50:43.135Z,51.30
2023-05-31T01:53:12.189Z,51.30
2023-05-31T01:55:44.065Z,51.30
2023-05-31T01:58:15.428Z,51.40
2023-05-31T02:00:45.692Z,51.50
2023-05-31T02:03:14.619Z,51.40
2023-05-31T02:05:57.913Z,51.40
2023-05-31T02:08:27.652Z,51.70
2023-05-31T02:10:56.708Z,51.30
2023-05-31T02:13:29.774Z,51.40
2023-05-31T02:15:59.493Z,51.50
2023-05-31T02:18:29.182Z,51.40
2023-05-31T02:20:58.316Z,51.50
2023-05-31T02:23:27.433Z,52.20
2023-05-31T02:25:56.357Z,51.50
2023-05-31T02:28:28.276Z,51.60
2023-05-31T02:30:58.382Z,51.70
2023-05-31T02:33:27.328Z,51.70
2023-05-31T02:35:58.077Z,51.70
2023-05-31T02:38:27.448Z,51.70
2023-05-31T02:40:56.234Z,51.70
2023-05-31T02:43:24.759Z,51.90
2023-05-31T02:45:55.681Z,51.90
2023-05-31T02:48:24.651Z,51.90
2023-05-31T02:50:53.820Z,51.90
2023-05-31T02:53:36.364Z,51.90
2023-05-31T02:56:19.460Z,51.80
2023-05-31T02:59:13.237Z,51.80
2023-05-31T03:01:52.297Z,51.90
2023-05-31T03:04:35.850Z,51.90
2023-05-31T03:07:06.416Z,51.80
2023-05-31T03:09:34.920Z,51.80
2023-05-31T03:12:05.096Z,51.90
2023-05-31T03:14:35.264Z,51.90
2023-05-31T03:17:07.530Z,52.00
2023-05-31T03:19:36.400Z,52.70
2023-05-31T03:22:07.274Z,52.00
2023-05-31T03:24:36.315Z,52.00
2023-05-31T03:27:07.792Z,52.10
2023-05-31T03:29:41.048Z,52.00
2023-05-31T03:32:11.114Z,52.10
2023-05-31T03:34:40.864Z,52.00
2023-05-31T03:37:09.255Z,51.90
2023-05-31T03:39:42.119Z,51.90
2023-05-31T03:42:14.325Z,51.80
2023-05-31T03:44:42.918Z,51.80
2023-05-31T03:47:13.340Z,51.80
2023-05-31T03:49:43.533Z,51.80
2023-05-31T03:52:14.036Z,51.70
2023-05-31T03:54:42.897Z,51.70
2023-05-31T03:57:11.357Z,51.70
2023-05-31T03:59:41.890Z,51.80
2023-05-31T04:02:10.551Z,51.90
2023-05-31T04:04:40.503Z,52.70
2023-05-31T04:07:09.053Z,52.10
2023-05-31T04:09:37.832Z,52.10
2023-05-31T04:12:07.726Z,52.20
2023-05-31T04:14:36.613Z,52.30
2023-05-31T04:17:07.601Z,52.30
2023-05-31T04:19:36.133Z,52.40
2023-05-31T04:22:07.925Z,52.40
2023-05-31T04:24:36.810Z,53.10
2023-05-31T04:27:08.083Z,52.40
2023-05-31T04:29:39.068Z,52.50
2023-05-31T04:32:10.041Z,52.50
2023-05-31T04:34:39.026Z,52.50
2023-05-31T04:37:10.781Z,52.50
2023-05-31T04:39:39.415Z,52.60
2023-05-31T04:42:12.661Z,52.70
2023-05-31T04:44:42.616Z,52.80
2023-05-31T04:47:11.940Z,52.90
2023-05-31T04:49:54.379Z,52.90
2023-05-31T04:52:27.783Z,53.00
2023-05-31T04:54:57.057Z,53.00
2023-05-31T04:57:28.779Z,53.00
2023-05-31T04:59:58.675Z,53.20
2023-05-31T05:02:28.373Z,53.30
2023-05-31T05:04:57.459Z,53.40
2023-05-31T05:07:27.768Z,53.40
2023-05-31T05:09:56.217Z,53.60
2023-05-31T05:12:24.710Z,53.50
2023-05-31T05:14:53.237Z,53.50
2023-05-31T05:17:21.936Z,53.80
2023-05-31T05:19:51.974Z,53.80
2023-05-31T05:22:21.989Z,53.80
2023-05-31T05:24:51.972Z,53.90
2023-05-31T05:27:22.772Z,54.10
2023-05-31T05:29:51.728Z,54.10
2023-05-31T05:32:20.197Z,54.20
2023-05-31T05:34:48.866Z,54.30
2023-05-31T05:37:17.633Z,54.40
2023-05-31T05:39:46.517Z,54.40
2023-05-31T05:42:17.380Z,54.40
2023-05-31T05:44:45.949Z,54.60
2023-05-31T05:47:15.755Z,54.60
2023-05-31T05:49:45.344Z,54.60
2023-05-31T05:52:14.799Z,54.60
2023-05-31T05:54:43.188Z,54.70
2023-05-31T05:57:12.212Z,54.70
2023-05-31T05:59:45.748Z,54.70
2023-05-31T06:02:21.907Z,54.90
2023-05-31T06:04:52.885Z,54.80
2023-05-31T06:07:22.311Z,54.90
2023-05-31T06:09:54.241Z,54.90
2023-05-31T06:12:23.638Z,54.80
2023-05-31T06:14:56.400Z,54.90
2023-05-31T06:17:25.024Z,55.00
2023-05-31T06:19:53.630Z,54.90
2023-05-31T06:22:22.087Z,54.90
2023-05-31T06:24:51.778Z,54.80
2023-05-31T06:27:20.441Z,54.90
2023-05-31T06:29:48.902Z,54.90
2023-05-31T06:32:31.703Z,54.90
2023-05-31T06:35:00.501Z,55.00
2023-05-31T06:37:28.984Z,55.00
2023-05-31T06:39:58.456Z,55.10
2023-05-31T06:42:27.620Z,55.00
2023-05-31T06:44:57.742Z,55.00
2023-05-31T06:47:46.722Z,55.00
2023-05-31T06:50:18.019Z,55.00
2023-05-31T06:52:49.135Z,54.90
2023-05-31T06:55:35.895Z,54.90
2023-05-31T06:58:05.241Z,54.90
2023-05-31T07:00:35.969Z,55.00
2023-05-31T07:03:06.898Z,54.90
2023-05-31T07:05:36.873Z,55.10
2023-05-31T07:08:05.878Z,55.10
2023-05-31T07:10:40.463Z,55.00
2023-05-31T07:13:09.283Z,55.00
2023-05-31T07:15:38.521Z,55.30
2023-05-31T07:18:08.532Z,55.30
2023-05-31T07:20:37.294Z,55.30
2023-05-31T07:23:05.787Z,55.30
2023-05-31T07:25:34.279Z,55.20
2023-05-31T07:28:02.680Z,55.30
2023-05-31T07:30:31.101Z,55.30
2023-05-31T07:32:59.932Z,55.30
2023-05-31T07:35:30.621Z,55.30
2023-05-31T07:37:59.078Z,55.50
2023-05-31T07:40:27.540Z,55.40
2023-05-31T07:42:56.847Z,55.50
2023-05-31T07:45:25.563Z,55.60
2023-05-31T07:47:54.432Z,55.60
2023-05-31T07:50:22.873Z,55.50
2023-05-31T07:52:53.451Z,55.50
2023-05-31T07:55:22.155Z,55.40
2023-05-31T07:57:50.620Z,55.40
2023-05-31T08:00:19.989Z,55.40
2023-05-31T08:02:48.745Z,55.30
2023-05-31T08:05:17.412Z,55.40
2023-05-31T08:07:46.216Z,55.40
2023-05-31T08:10:16.395Z,55.40
2023-05-31T08:12:45.590Z,54.90
2023-05-31T08:15:14.329Z,55.10
2023-05-31T08:17:44.162Z,55.10
2023-05-31T08:20:14.779Z,55.10
2023-05-31T08:22:45.450Z,55.10
2023-05-31T08:25:18.135Z,54.90
2023-05-31T08:27:47.091Z,54.70
2023-05-31T08:30:15.775Z,54.60
2023-05-31T08:32:44.635Z,54.60
2023-05-31T08:35:13.481Z,54.50
2023-05-31T08:37:42.340Z,54.30
2023-05-31T08:40:12.016Z,54.20
2023-05-31T08:42:46.084Z,54.10
2023-05-31T08:45:15.083Z,54.10
2023-05-31T08:47:47.588Z,54.00
2023-05-31T08:50:18.494Z,54.00
2023-05-31T08:52:48.681Z,53.90
2023-05-31T08:55:18.459Z,53.80
2023-05-31T08:57:49.873Z,53.70
2023-05-31T09:00:20.356Z,53.60
2023-05-31T09:02:49.517Z,53.60
2023-05-31T09:05:18.036Z,53.30
2023-05-31T09:07:50.951Z,53.30
2023-05-31T09:10:20.969Z,53.40
2023-05-31T09:12:50.905Z,53.20
2023-05-31T09:15:21.011Z,53.10
2023-05-31T09:17:49.558Z,52.90
2023-05-31T09:20:19.056Z,52.70
2023-05-31T09:22:50.514Z,52.80
2023-05-31T09:25:19.214Z,52.40
2023-05-31T09:27:47.636Z,52.40
2023-05-31T09:30:18.077Z,52.40
2023-05-31T09:32:55.864Z,52.20
2023-05-31T09:35:28.509Z,52.00
2023-05-31T09:37:57.915Z,51.90
2023-05-31T09:40:28.514Z,51.90
2023-05-31T09:42:57.222Z,51.60
2023-05-31T09:45:29.812Z,51.50
2023-05-31T09:47:58.645Z,51.00
2023-05-31T09:50:27.285Z,51.10
2023-05-31T09:52:59.950Z,51.00
2023-05-31T09:55:42.418Z,50.30
2023-05-31T09:58:12.723Z,49.70
2023-05-31T10:00:47.846Z,50.10
2023-05-31T10:03:16.530Z,49.80
2023-05-31T10:05:45.705Z,49.80
2023-05-31T10:08:14.519Z,49.00
2023-05-31T10:10:43.274Z,48.80
2023-05-31T10:13:16.344Z,48.70
2023-05-31T10:15:49.233Z,48.70
2023-05-31T10:18:19.219Z,48.00
2023-05-31T10:20:54.380Z,47.90
2023-05-31T10:23:24.868Z,46.40
2023-05-31T10:26:07.822Z,47.00
2023-05-31T10:28:39.883Z,46.90
2023-05-31T10:31:13.223Z,46.80
2023-05-31T10:33:49.987Z,46.40
2023-05-31T10:36:19.717Z,46.60
2023-05-31T10:38:54.918Z,46.40
2023-05-31T10:41:27.239Z,45.90
2023-05-31T10:44:02.437Z,45.70
2023-05-31T10:46:35.613Z,45.40
2023-05-31T10:49:07.637Z,45.30
2023-05-31T10:51:45.456Z,45.30
2023-05-31T10:54:21.952Z,45.30
2023-05-31T10:56:58.541Z,45.50
2023-05-31T10:59:28.886Z,44.90
2023-05-31T11:02:01.472Z,45.20
2023-05-31T11:04:30.299Z,45.00
2023-05-31T11:07:16.082Z,44.70
2023-05-31T11:09:57.677Z,44.30
2023-05-31T11:12:36.814Z,44.90
2023-05-31T11:15:08.536Z,43.90
2023-05-31T11:17:57.381Z,44.20
2023-05-31T11:20:28.636Z,44.00
2023-05-31T11:23:26.808Z,44.00
2023-05-31T11:26:12.986Z,43.30
2023-05-31T11:29:00.251Z,43.60
2023-05-31T11:32:03.031Z,43.10
2023-05-31T11:34:36.286Z,42.80
2023-05-31T11:37:06.768Z,43.20
2023-05-31T11:39:35.482Z,43.50
2023-05-31T11:42:06.263Z,43.40
2023-05-31T11:44:35.375Z,43.20
2023-05-31T11:47:08.338Z,43.20
2023-05-31T11:49:38.957Z,42.80
2023-05-31T11:52:08.199Z,42.80
2023-05-31T11:54:37.201Z,42.90
2023-05-31T11:57:08.910Z,42.90
2023-05-31T11:59:39.066Z,42.50
2023-05-31T12:02:11.587Z,42.80
2023-05-31T12:04:43.527Z,42.30
2023-05-31T12:07:14.152Z,42.50
2023-05-31T12:09:42.714Z,42.40
2023-05-31T12:12:13.916Z,42.40
2023-05-31T12:14:52.215Z,42.40
2023-05-31T12:17:20.988Z,41.90
2023-05-31T12:19:51.859Z,42.50
2023-05-31T12:22:20.317Z,42.00
2023-05-31T12:24:52.958Z,42.00
2023-05-31T12:27:36.929Z,41.80
2023-05-31T12:30:19.105Z,41.80
2023-05-31T12:32:48.317Z,41.40
2023-05-31T12:35:18.511Z,41.60
2023-05-31T12:37:47.169Z,41.50
2023-05-31T12:40:24.067Z,41.80
2023-05-31T12:42:53.135Z,41.50
2023-05-31T12:45:21.624Z,41.70
2023-05-31T12:47:59.749Z,41.60
2023-05-31T12:50:32.413Z,41.20
2023-05-31T12:53:02.007Z,41.20
2023-05-31T12:55:30.538Z,41.30
2023-05-31T12:58:01.230Z,41.40
2023-05-31T13:00:32.611Z,41.30
2023-05-31T13:03:01.579Z,41.20
2023-05-31T13:05:31.566Z,41.20
2023-05-31T13:08:00.133Z,41.70
2023-05-31T13:10:28.785Z,41.00
2023-05-31T13:12:57.380Z,41.00
2023-05-31T13:15:26.011Z,41.10
2023-05-31T13:17:54.563Z,41.10
2023-05-31T13:20:23.125Z,41.50
2023-05-31T13:22:53.343Z,41.10
2023-05-31T13:25:22.253Z,41.00
2023-05-31T13:27:50.839Z,40.80
2023-05-31T13:30:19.755Z,40.30
2023-05-31T13:32:48.273Z,40.10
2023-05-31T13:35:17.195Z,40.00
2023-05-31T13:37:45.611Z,40.40
2023-05-31T13:40:15.593Z,40.50
2023-05-31T13:42:44.356Z,40.40
2023-05-31T13:45:13.329Z,40.60
2023-05-31T13:47:42.606Z,40.80
2023-05-31T13:50:12.207Z,41.10
2023-05-31T13:52:40.641Z,41.20
2023-05-31T13:55:10.438Z,41.20
2023-05-31T13:57:40.607Z,41.10
2023-05-31T14:00:12.086Z,40.80
2023-05-31T14:02:41.915Z,40.90
2023-05-31T14:05:11.130Z,40.80
2023-05-31T14:07:40.004Z,40.80
2023-05-31T14:10:09.794Z,40.60
2023-05-31T14:12:38.650Z,40.30
2023-05-31T14:15:10.767Z,40.30
2023-05-31T14:17:39.732Z,40.00
2023-05-31T14:20:10.466Z,40.00
2023-05-31T14:22:39.115Z,40.00
2023-05-31T14:25:09.286Z,40.00
2023-05-31T14:27:37.675Z,39.80
2023-05-31T14:30:09.702Z,39.80
2023-05-31T14:32:38.400Z,40.00
2023-05-31T14:35:11.424Z,39.80
2023-05-31T14:37:52.332Z,39.90
2023-05-31T14:40:28.242Z,40.20
2023-05-31T14:42:56.762Z,39.90
2023-05-31T14:45:26.861Z,40.00
2023-05-31T14:47:55.477Z,39.90
2023-05-31T14:50:24.325Z,39.80
2023-05-31T14:52:53.059Z,40.00
2023-05-31T14:55:21.510Z,39.70
2023-05-31T14:57:50.143Z,39.60
2023-05-31T15:00:19.776Z,39.50
2023-05-31T15:02:49.764Z,39.70
2023-05-31T15:05:19.105Z,39.70
2023-05-31T15:07:47.540Z,39.70
2023-05-31T15:10:16.273Z,39.60
2023-05-31T15:12:44.815Z,39.80
2023-05-31T15:15:15.776Z,39.90
2023-05-31T15:17:44.313Z,40.00
2023-05-31T15:20:14.859Z,40.00
2023-05-31T15:22:43.489Z,39.80
2023-05-31T15:25:12.122Z,39.80
2023-05-31T15:27:40.669Z,39.70
2023-05-31T15:30:10.706Z,39.60
2023-05-31T15:32:39.191Z,39.70
2023-05-31T15:35:08.852Z,39.70
2023-05-31T15:37:38.734Z,39.70
2023-05-31T15:40:09.891Z,39.70
2023-05-31T15:42:38.360Z,39.60
2023-05-31T15:45:08.078Z,39.90
2023-05-31T15:47:36.638Z,39.90
2023-05-31T15:50:06.079Z,39.90
2023-05-31T15:52:34.458Z,40.10
2023-05-31T15:55:04.983Z,39.90
2023-05-31T15:57:33.551Z,40.10
2023-05-31T16:00:02.371Z,40.10
2023-05-31T16:02:40.339Z,40.10
2023-05-31T16:05:11.800Z,40.00
2023-05-31T16:07:41.108Z,40.20
2023-05-31T16:10:13.730Z,40.30
2023-05-31T16:12:43.103Z,40.20
2023-05-31T16:15:12.645Z,40.20
2023-05-31T16:17:41.245Z,40.30
2023-05-31T16:20:11.153Z,40.10
2023-05-31T16:22:39.621Z,40.10
2023-05-31T16:25:11.214Z,40.20
2023-05-31T16:27:39.717Z,40.00
2023-05-31T16:30:09.857Z,40.00
2023-05-31T16:32:38.710Z,40.00
2023-05-31T16:35:09.835Z,40.00
2023-05-31T16:37:38.310Z,40.10
2023-05-31T16:40:08.337Z,40.30
2023-05-31T16:42:38.105Z,40.20
2023-05-31T16:45:07.697Z,40.30
2023-05-31T16:47:36.600Z,40.30
2023-05-31T16:50:06.322Z,40.30
2023-05-31T16:52:34.843Z,40.40
2023-05-31T16:55:03.552Z,40.40
2023-05-31T16:57:31.960Z,41.10
2023-05-31T17:00:02.063Z,40.60
2023-05-31T17:02:30.955Z,40.50
2023-05-31T17:04:59.625Z,40.50
2023-05-31T17:07:28.451Z,40.30
2023-05-31T17:09:56.805Z,40.20
2023-05-31T17:12:26.775Z,40.30
2023-05-31T17:14:55.269Z,40.40
2023-05-31T17:17:25.195Z,40.30
2023-05-31T17:19:54.482Z,40.20
2023-05-31T17:22:23.110Z,40.50
2023-05-31T17:24:51.552Z,40.40
2023-05-31T17:27:20.162Z,40.50
2023-05-31T17:29:48.678Z,40.50
2023-05-31T17:32:18.731Z,40.50
2023-05-31T17:34:48.697Z,40.40
2023-05-31T17:37:17.303Z,40.30
2023-05-31T17:39:46.001Z,40.40
2023-05-31T17:42:14.421Z,40.30
2023-05-31T17:44:42.871Z,40.20
2023-05-31T17:47:11.457Z,40.10
2023-05-31T17:49:40.900Z,40.10
2023-05-31T17:52:11.091Z,40.10
2023-05-31T17:54:39.511Z,40.10
2023-05-31T17:57:09.382Z,40.10
2023-05-31T17:59:37.977Z,40.00
2023-05-31T18:02:07.409Z,39.90
2023-05-31T18:04:35.970Z,39.80
2023-05-31T18:07:07.309Z,39.60
2023-05-31T18:09:37.473Z,39.60
2023-05-31T18:12:07.278Z,39.60
2023-05-31T18:14:35.885Z,39.80
2023-05-31T18:17:04.533Z,39.60
2023-05-31T18:19:34.864Z,39.60
2023-05-31T18:22:03.991Z,39.70
2023-05-31T18:24:32.485Z,39.90
2023-05-31T18:27:17.495Z,40.00
2023-05-31T18:29:45.933Z,39.70
2023-05-31T18:32:14.586Z,39.80
2023-05-31T18:34:43.512Z,39.80
2023-05-31T18:37:12.289Z,39.60
2023-05-31T18:39:40.858Z,39.60
2023-05-31T18:42:09.827Z,39.60
2023-05-31T18:44:40.459Z,39.60
2023-05-31T18:47:09.507Z,39.60
2023-05-31T18:49:38.044Z,39.50
2023-05-31T18:52:07.193Z,39.50
2023-05-31T18:54:35.690Z,39.60
2023-05-31T18:57:04.455Z,39.60
2023-05-31T18:59:33.313Z,39.70
2023-05-31T19:02:03.276Z,39.80
2023-05-31T19:04:32.069Z,39.90
2023-05-31T19:07:00.604Z,39.90
2023-05-31T19:09:29.158Z,39.90
2023-05-31T19:11:57.541Z,39.80
2023-05-31T19:14:26.306Z,39.80
2023-05-31T19:16:55.684Z,39.90
2023-05-31T19:19:25.750Z,40.00
2023-05-31T19:21:54.468Z,40.00
2023-05-31T19:24:22.922Z,40.10
2023-05-31T19:26:51.484Z,40.20
2023-05-31T19:29:20.147Z,40.20
2023-05-31T19:31:49.200Z,40.30
2023-05-31T19:34:17.934Z,40.40
2023-05-31T19:36:48.084Z,40.60
2023-05-31T19:39:20.119Z,40.60
2023-05-31T19:41:50.704Z,40.50
2023-05-31T19:44:19.242Z,40.70
2023-05-31T19:46:47.830Z,40.60
2023-05-31T19:49:16.373Z,40.60
2023-05-31T19:51:45.227Z,40.60
2023-05-31T19:54:15.450Z,40.70
2023-05-31T19:56:43.985Z,40.70
2023-05-31T19:59:12.530Z,40.90
2023-05-31T20:01:41.721Z,40.80
2023-05-31T20:04:10.998Z,40.80
2023-05-31T20:06:39.553Z,40.80
2023-05-31T20:09:08.456Z,40.90
2023-05-31T20:11:39.677Z,41.00
2023-05-31T20:14:08.053Z,41.00
2023-05-31T20:16:37.158Z,40.90
2023-05-31T20:19:06.600Z,41.10
2023-05-31T20:21:35.321Z,41.20
2023-05-31T20:24:04.361Z,41.30
2023-05-31T20:26:32.779Z,41.30
2023-05-31T20:29:02.783Z,41.30
2023-05-31T20:31:31.382Z,41.30
2023-05-31T20:34:00.428Z,41.80
2023-05-31T20:36:29.057Z,41.30
2023-05-31T20:38:58.502Z,41.30
2023-05-31T20:41:27.961Z,41.40
2023-05-31T20:43:56.343Z,41.50
2023-05-31T20:46:27.023Z,41.60
2023-05-31T20:48:56.777Z,41.70
2023-05-31T20:51:25.542Z,41.60
2023-05-31T20:53:54.301Z,41.70
2023-05-31T20:56:23.305Z,41.80
2023-05-31T20:58:52.220Z,41.80
2023-05-31T21:01:21.252Z,41.90
2023-05-31T21:03:51.536Z,41.90
2023-05-31T21:06:20.157Z,41.90
2023-05-31T21:08:48.569Z,41.90
2023-05-31T21:11:17.154Z,41.80
2023-05-31T21:13:45.578Z,41.90
2023-05-31T21:16:14.014Z,42.00
2023-05-31T21:18:42.531Z,42.10
2023-05-31T21:21:12.472Z,42.10
2023-05-31T21:23:40.986Z,42.20
2023-05-31T21:26:09.517Z,42.30
2023-05-31T21:28:38.054Z,42.40
2023-05-31T21:31:07.169Z,42.50
2023-05-31T21:33:35.612Z,42.50
2023-05-31T21:36:04.181Z,42.60
2023-05-31T21:38:34.079Z,42.80
2023-05-31T21:41:04.660Z,42.90
2023-05-31T21:43:35.035Z,43.00
2023-05-31T21:46:03.423Z,43.00
2023-05-31T21:48:31.977Z,42.90
2023-05-31T21:51:00.536Z,42.90
2023-05-31T21:53:29.566Z,43.00
2023-05-31T21:56:00.152Z,43.10
2023-05-31T21:58:28.697Z,43.30
2023-05-31T22:00:57.227Z,43.90
2023-05-31T22:03:25.747Z,43.40
2023-05-31T22:05:54.627Z,43.40
2023-05-31T22:08:23.325Z,43.50
2023-05-31T22:10:52.373Z,43.60
2023-05-31T22:13:23.539Z,43.50
2023-05-31T22:15:52.510Z,43.60
2023-05-31T22:18:22.422Z,43.70
2023-05-31T22:20:54.478Z,43.80
2023-05-31T22:23:24.568Z,43.80
2023-05-31T22:25:55.123Z,43.80
2023-05-31T22:28:25.840Z,43.80
2023-05-31T22:30:56.243Z,43.80
2023-05-31T22:33:24.863Z,43.80
2023-05-31T22:35:53.458Z,43.80
2023-05-31T22:38:22.070Z,43.90
2023-05-31T22:40:50.514Z,43.90
2023-05-31T22:43:18.940Z,43.90
2023-05-31T22:45:49.243Z,44.00
2023-05-31T22:48:17.824Z,44.10
2023-05-31T22:50:46.712Z,44.10
2023-05-31T22:53:15.133Z,44.10
2023-05-31T22:55:43.601Z,44.20
2023-05-31T22:58:12.171Z,44.30
2023-05-31T23:00:40.584Z,44.40
2023-05-31T23:03:10.770Z,44.50
2023-05-31T23:05:41.923Z,44.60
2023-05-31T23:08:10.835Z,44.60
2023-05-31T23:10:39.841Z,44.60
2023-05-31T23:13:10.121Z,44.60
2023-05-31T23:15:39.375Z,44.50
2023-05-31T23:18:11.111Z,44.50
2023-05-31T23:20:39.904Z,44.50
2023-05-31T23:23:08.829Z,44.60
2023-05-31T23:25:37.375Z,44.70
2023-05-31T23:28:06.387Z,44.70
2023-05-31T23:30:34.843Z,44.80
2023-05-31T23:33:03.772Z,44.90
2023-05-31T23:35:33.790Z,45.00
2023-05-31T23:38:02.323Z,45.00
2023-05-31T23:40:31.120Z,45.00
2023-05-31T23:42:59.637Z,45.10
2023-05-31T23:45:28.442Z,45.10
2023-05-31T23:47:56.943Z,45.10
2023-05-31T23:50:26.131Z,45.20
2023-05-31T23:52:56.893Z,45.30
2023-05-31T23:55:25.671Z,45.40
2023-05-31T23:57:54.117Z,45.50
